createdAt,value
2022-10-19T00:00:04.393Z,8.50
2022-10-19T00:02:36.757Z,8.50
2022-10-19T00:05:04.879Z,8.50
2022-10-19T00:07:32.992Z,8.40
2022-10-19T00:10:01.038Z,8.40
2022-10-19T00:12:28.925Z,8.40
2022-10-19T00:14:57.898Z,8.40
2022-10-19T00:17:25.848Z,8.40
2022-10-19T00:19:55.098Z,8.30
2022-10-19T00:22:23.010Z,8.20
2022-10-19T00:24:50.900Z,8.30
2022-10-19T00:27:18.770Z,8.30
2022-10-19T00:29:46.617Z,8.20
2022-10-19T00:32:14.563Z,8.20
2022-10-19T00:34:42.566Z,8.20
2022-10-19T00:37:11.791Z,8.20
2022-10-19T00:39:40.109Z,8.10
2022-10-19T00:42:11.125Z,8.10
2022-10-19T00:45:06.857Z,8.10
2022-10-19T00:47:35.381Z,8.10
2022-10-19T00:50:03.535Z,8.00
2022-10-19T00:52:33.335Z,8.00
2022-10-19T00:55:02.675Z,8.00
2022-10-19T00:57:32.387Z,8.00
2022-10-19T01:00:02.296Z,7.90
2022-10-19T01:02:30.343Z,7.90
2022-10-19T01:04:59.341Z,8.00
2022-10-19T01:07:27.811Z,7.90
2022-10-19T01:09:57.835Z,7.90
2022-10-19T01:12:52.306Z,7.90
2022-10-19T01:15:32.340Z,7.90
2022-10-19T01:18:08.633Z,7.90
2022-10-19T01:21:12.369Z,7.80
2022-10-19T01:24:09.411Z,7.80
2022-10-19T01:27:05.697Z,7.80
2022-10-19T01:30:17.589Z,7.80
2022-10-19T01:32:59.539Z,7.70
2022-10-19T01:35:32.981Z,7.80
2022-10-19T01:38:08.995Z,7.70
2022-10-19T01:40:45.871Z,7.70
2022-10-19T01:43:24.115Z,7.70
2022-10-19T01:45:55.168Z,7.70
2022-10-19T01:48:29.334Z,7.70
2022-10-19T01:51:01.425Z,7.90
2022-10-19T01:53:32.343Z,7.70
2022-10-19T01:56:03.071Z,7.70
2022-10-19T01:58:35.824Z,8.00
2022-10-19T02:01:07.288Z,7.70
2022-10-19T02:03:38.068Z,7.70
2022-10-19T02:06:09.167Z,7.70
2022-10-19T02:08:41.562Z,7.70
2022-10-19T02:11:09.766Z,8.00
2022-10-19T02:13:40.161Z,7.60
2022-10-19T02:16:14.682Z,7.60
2022-10-19T02:18:47.031Z,7.60
2022-10-19T02:21:15.350Z,7.60
2022-10-19T02:23:43.262Z,7.60
2022-10-19T02:26:11.310Z,7.60
2022-10-19T02:28:39.560Z,7.60
2022-10-19T02:31:07.591Z,7.60
2022-10-19T02:33:35.642Z,7.60
2022-10-19T02:36:05.320Z,7.60
2022-10-19T02:38:33.338Z,7.60
2022-10-19T02:41:08.074Z,7.60
2022-10-19T02:43:39.926Z,7.60
2022-10-19T02:46:15.076Z,7.60
2022-10-19T02:48:43.879Z,7.50
2022-10-19T02:51:31.701Z,7.60
2022-10-19T02:54:02.627Z,7.60
2022-10-19T02:56:33.377Z,7.60
2022-10-19T02:59:01.318Z,7.60
2022-10-19T03:01:29.197Z,7.60
2022-10-19T03:03:57.123Z,7.50
2022-10-19T03:06:25.025Z,7.50
2022-10-19T03:08:54.290Z,7.50
2022-10-19T03:11:22.204Z,7.50
2022-10-19T03:13:50.080Z,7.60
2022-10-19T03:16:18.014Z,7.50
2022-10-19T03:18:45.943Z,7.50
2022-10-19T03:21:14.572Z,7.40
2022-10-19T03:23:42.961Z,7.60
2022-10-19T03:26:15.583Z,7.60
2022-10-19T03:28:43.930Z,7.60
2022-10-19T03:31:11.963Z,7.60
2022-10-19T03:33:39.967Z,7.60
2022-10-19T03:36:14.700Z,7.60
2022-10-19T03:38:42.622Z,7.60
2022-10-19T03:41:12.258Z,7.50
2022-10-19T03:43:41.217Z,7.80
2022-10-19T03:46:09.395Z,7.40
2022-10-19T03:48:37.471Z,7.50
2022-10-19T03:51:07.461Z,7.90
2022-10-19T03:53:35.763Z,7.50
2022-10-19T03:56:05.557Z,7.50
2022-10-19T03:58:36.900Z,7.50
2022-10-19T04:01:09.459Z,7.50
2022-10-19T04:03:37.645Z,7.50
2022-10-19T04:06:07.059Z,7.50
2022-10-19T04:08:35.531Z,7.50
2022-10-19T04:11:04.400Z,7.50
2022-10-19T04:13:34.678Z,7.40
2022-10-19T04:16:03.095Z,7.50
2022-10-19T04:18:31.039Z,7.50
2022-10-19T04:21:00.146Z,7.50
2022-10-19T04:23:29.162Z,7.50
2022-10-19T04:26:01.359Z,7.40
2022-10-19T04:28:29.389Z,7.50
2022-10-19T04:31:02.422Z,7.60
2022-10-19T04:33:30.429Z,7.40
2022-10-19T04:36:00.309Z,7.40
2022-10-19T04:38:29.450Z,7.40
2022-10-19T04:40:57.660Z,7.40
2022-10-19T04:43:25.555Z,7.40
2022-10-19T04:45:53.454Z,7.40
2022-10-19T04:48:22.834Z,7.30
2022-10-19T04:50:50.789Z,7.30
2022-10-19T04:53:19.294Z,7.40
2022-10-19T04:55:47.266Z,7.30
2022-10-19T04:58:15.176Z,7.30
2022-10-19T05:00:43.063Z,7.30
2022-10-19T05:03:10.991Z,7.30
2022-10-19T05:05:40.254Z,7.30
2022-10-19T05:08:08.454Z,7.20
2022-10-19T05:10:37.023Z,7.20
2022-10-19T05:13:05.466Z,7.20
2022-10-19T05:15:33.478Z,7.20
2022-10-19T05:18:02.185Z,7.20
2022-10-19T05:20:30.050Z,7.30
2022-10-19T05:23:03.285Z,7.20
2022-10-19T05:25:34.323Z,7.20
2022-10-19T05:28:02.190Z,7.10
2022-10-19T05:30:32.147Z,7.10
2022-10-19T05:33:00.062Z,7.10
2022-10-19T05:35:27.941Z,7.10
2022-10-19T05:37:56.194Z,7.10
2022-10-19T05:40:25.431Z,7.10
2022-10-19T05:42:53.295Z,7.60
2022-10-19T05:45:21.253Z,7.10
2022-10-19T05:47:49.119Z,7.00
2022-10-19T05:50:17.131Z,7.10
2022-10-19T05:52:45.018Z,7.00
2022-10-19T05:55:12.912Z,7.00
2022-10-19T05:57:42.163Z,7.00
2022-10-19T06:00:11.749Z,7.00
2022-10-19T06:02:39.633Z,7.00
2022-10-19T06:05:08.574Z,7.00
2022-10-19T06:07:36.715Z,7.10
2022-10-19T06:10:05.494Z,7.30
2022-10-19T06:12:33.364Z,7.10
2022-10-19T06:15:02.594Z,7.10
2022-10-19T06:17:30.707Z,7.10
2022-10-19T06:19:58.595Z,7.10
2022-10-19T06:22:26.489Z,7.00
2022-10-19T06:24:54.422Z,8.00
2022-10-19T06:27:22.323Z,7.00
2022-10-19T06:29:50.365Z,7.10
2022-10-19T06:32:19.861Z,7.10
2022-10-19T06:34:47.822Z,7.60
2022-10-19T06:37:15.699Z,7.10
2022-10-19T06:39:43.630Z,7.10
2022-10-19T06:42:11.550Z,7.20
2022-10-19T06:44:39.404Z,7.10
2022-10-19T06:47:07.282Z,7.10
2022-10-19T06:49:37.178Z,7.10
2022-10-19T06:52:05.826Z,7.10
2022-10-19T06:54:33.695Z,7.20
2022-10-19T06:57:01.587Z,7.20
2022-10-19T06:59:29.523Z,7.30
2022-10-19T07:01:58.585Z,7.20
2022-10-19T07:04:26.482Z,7.30
2022-10-19T07:06:55.720Z,7.30
2022-10-19T07:09:23.758Z,7.30
2022-10-19T07:11:52.115Z,7.20
2022-10-19T07:14:19.974Z,7.40
2022-10-19T07:16:50.416Z,7.40
2022-10-19T07:19:18.895Z,7.40
2022-10-19T07:21:46.758Z,7.60
2022-10-19T07:24:16.011Z,7.50
2022-10-19T07:26:44.076Z,7.50
2022-10-19T07:29:11.994Z,7.60
2022-10-19T07:31:39.979Z,7.60
2022-10-19T07:34:07.970Z,7.60
2022-10-19T07:36:37.001Z,7.70
2022-10-19T07:39:06.325Z,7.70
2022-10-19T07:41:35.805Z,7.70
2022-10-19T07:44:05.906Z,7.70
2022-10-19T07:46:37.103Z,7.80
2022-10-19T07:49:07.613Z,7.80
2022-10-19T07:51:35.520Z,7.90
2022-10-19T07:54:04.036Z,8.00
2022-10-19T07:56:32.151Z,7.90
2022-10-19T07:59:02.773Z,8.00
2022-10-19T08:01:32.781Z,8.10
2022-10-19T08:06:50.017Z,8.20
2022-10-19T08:09:40.191Z,8.20
2022-10-19T08:12:07.000Z,8.40
2022-10-19T08:14:36.272Z,8.20
2022-10-19T08:17:04.250Z,8.70
2022-10-19T08:19:32.152Z,8.50
2022-10-19T08:22:00.115Z,8.60
2022-10-19T08:24:27.976Z,8.70
2022-10-19T08:26:55.859Z,8.80
2022-10-19T08:29:25.532Z,8.90
2022-10-19T08:31:57.027Z,8.90
2022-10-19T08:34:25.248Z,9.10
2022-10-19T08:36:53.133Z,9.00
2022-10-19T08:39:21.064Z,9.10
2022-10-19T08:41:59.076Z,9.10
2022-10-19T08:45:02.637Z,9.20
2022-10-19T08:47:46.196Z,9.30
2022-10-19T08:50:21.398Z,9.50
2022-10-19T08:52:56.272Z,9.50
2022-10-19T08:55:30.426Z,9.60
2022-10-19T08:58:05.442Z,9.60
2022-10-19T09:00:42.503Z,9.70
2022-10-19T09:03:37.430Z,9.70
2022-10-19T09:06:19.949Z,9.80
2022-10-19T09:08:48.533Z,9.90
2022-10-19T09:11:21.804Z,10.00
2022-10-19T09:14:04.800Z,10.10
2022-10-19T09:16:33.638Z,10.00
2022-10-19T09:19:03.228Z,10.30
2022-10-19T09:21:44.578Z,10.30
2022-10-19T09:24:28.673Z,10.40
2022-10-19T09:26:59.093Z,10.50
2022-10-19T09:29:32.261Z,10.60
2022-10-19T09:32:04.730Z,10.70
2022-10-19T09:34:35.784Z,10.70
2022-10-19T09:37:04.440Z,10.80
2022-10-19T09:39:32.488Z,10.90
2022-10-19T09:42:06.139Z,11.00
2022-10-19T09:44:34.162Z,11.00
2022-10-19T09:47:17.364Z,11.10
2022-10-19T09:49:48.105Z,11.10
2022-10-19T09:52:26.439Z,11.30
2022-10-19T09:55:02.091Z,11.30
2022-10-19T09:57:30.361Z,11.30
2022-10-19T09:59:58.494Z,11.40
2022-10-19T10:02:32.452Z,11.60
2022-10-19T10:05:08.351Z,11.20
2022-10-19T10:07:39.227Z,11.50
2022-10-19T10:10:12.712Z,11.50
2022-10-19T10:12:41.917Z,11.60
2022-10-19T10:15:17.394Z,11.70
2022-10-19T10:17:47.321Z,11.70
2022-10-19T10:20:27.777Z,11.70
2022-10-19T10:22:58.619Z,11.80
2022-10-19T10:25:30.086Z,11.90
2022-10-19T10:28:00.951Z,11.90
2022-10-19T10:30:34.958Z,11.90
2022-10-19T10:33:21.163Z,12.00
2022-10-19T10:35:55.875Z,12.10
2022-10-19T10:38:25.598Z,12.20
2022-10-19T10:40:57.231Z,12.30
2022-10-19T10:43:31.663Z,12.30
2022-10-19T10:46:04.961Z,12.30
2022-10-19T10:48:37.257Z,12.30
2022-10-19T10:51:09.510Z,12.40
2022-10-19T10:53:39.913Z,12.40
2022-10-19T10:56:23.015Z,12.50
2022-10-19T10:58:58.335Z,12.50
2022-10-19T11:01:31.381Z,12.50
2022-10-19T11:04:05.769Z,12.60
2022-10-19T11:06:42.279Z,12.60
2022-10-19T11:09:21.220Z,12.70
2022-10-19T11:11:55.879Z,12.80
2022-10-19T11:14:30.061Z,12.80
2022-10-19T11:17:00.866Z,12.90
2022-10-19T11:19:33.236Z,12.90
2022-10-19T11:22:07.469Z,13.00
2022-10-19T11:24:48.736Z,13.00
2022-10-19T11:27:28.973Z,13.00
2022-10-19T11:30:11.853Z,13.10
2022-10-19T11:32:53.531Z,13.10
2022-10-19T11:35:39.490Z,13.30
2022-10-19T11:38:29.569Z,13.30
2022-10-19T11:41:23.371Z,13.40
2022-10-19T11:44:05.812Z,13.50
2022-10-19T11:46:40.997Z,13.60
2022-10-19T11:49:19.581Z,13.60
2022-10-19T11:51:53.493Z,13.70
2022-10-19T11:54:39.751Z,13.80
2022-10-19T11:57:14.282Z,13.90
2022-10-19T12:00:13.618Z,14.00
2022-10-19T12:03:03.734Z,14.10
2022-10-19T12:05:39.817Z,14.10
2022-10-19T12:08:22.610Z,14.20
2022-10-19T12:10:58.545Z,14.40
2022-10-19T12:13:40.726Z,14.50
2022-10-19T12:16:10.327Z,14.80
2022-10-19T12:18:42.903Z,14.70
2022-10-19T12:21:14.556Z,14.80
2022-10-19T12:23:46.731Z,14.90
2022-10-19T12:28:56.580Z,15.20
2022-10-19T12:31:26.897Z,15.30
2022-10-19T12:34:01.736Z,15.40
2022-10-19T12:36:41.309Z,15.50
2022-10-19T12:39:17.439Z,15.50
2022-10-19T12:41:53.731Z,15.60
2022-10-19T12:44:37.974Z,15.70
2022-10-19T12:47:12.489Z,15.50
2022-10-19T12:49:49.828Z,15.90
2022-10-19T12:52:36.321Z,17.00
2022-10-19T12:55:13.934Z,16.20
2022-10-19T12:57:48.059Z,16.20
2022-10-19T13:00:24.471Z,16.30
2022-10-19T13:03:00.908Z,16.40
2022-10-19T13:05:31.374Z,16.70
2022-10-19T13:08:01.257Z,16.80
2022-10-19T13:10:30.846Z,17.00
2022-10-19T13:13:00.387Z,17.00
2022-10-19T13:15:52.719Z,17.30
2022-10-19T13:19:08.332Z,17.50
2022-10-19T13:21:50.399Z,17.50
2022-10-19T13:24:28.615Z,17.60
2022-10-19T13:27:35.519Z,17.90
2022-10-19T13:30:05.997Z,18.00
2022-10-19T13:32:44.250Z,18.10
2022-10-19T13:35:36.861Z,18.20
2022-10-19T13:38:27.418Z,18.10
2022-10-19T13:41:03.385Z,18.20
2022-10-19T13:43:33.849Z,18.20
2022-10-19T13:46:10.359Z,18.10
2022-10-19T13:49:04.182Z,18.30
2022-10-19T13:51:38.725Z,18.30
2022-10-19T13:54:20.488Z,18.60
2022-10-19T13:57:06.299Z,18.30
2022-10-19T13:59:53.790Z,18.20
2022-10-19T14:02:57.215Z,18.10
2022-10-19T14:05:53.689Z,18.10
2022-10-19T14:09:06.041Z,18.10
2022-10-19T14:11:37.434Z,17.90
2022-10-19T14:14:16.105Z,17.80
2022-10-19T14:16:58.292Z,17.80
2022-10-19T14:19:33.430Z,17.50
2022-10-19T14:22:02.149Z,17.70
2022-10-19T14:24:32.909Z,17.30
2022-10-19T14:27:02.864Z,17.20
2022-10-19T14:29:32.381Z,17.10
2022-10-19T14:32:00.650Z,16.80
2022-10-19T14:34:29.920Z,16.60
2022-10-19T14:36:57.833Z,17.20
2022-10-19T14:39:31.524Z,16.50
2022-10-19T14:42:05.720Z,16.40
2022-10-19T14:44:39.747Z,16.10
2022-10-19T14:47:21.199Z,16.20
2022-10-19T14:49:51.377Z,16.10
2022-10-19T14:52:24.136Z,16.10
2022-10-19T14:54:56.066Z,15.80
2022-10-19T14:57:28.132Z,15.80
2022-10-19T14:59:59.374Z,15.90
2022-10-19T15:02:32.079Z,15.70
2022-10-19T15:05:03.997Z,15.80
2022-10-19T15:07:36.622Z,15.70
2022-10-19T15:10:09.152Z,15.70
2022-10-19T15:12:39.646Z,15.80
2022-10-19T15:15:14.764Z,15.60
2022-10-19T15:17:53.164Z,15.50
2022-10-19T15:20:28.981Z,15.40
2022-10-19T15:22:57.804Z,15.30
2022-10-19T15:25:33.988Z,15.30
2022-10-19T15:28:20.519Z,15.10
2022-10-19T15:31:00.140Z,15.10
2022-10-19T15:33:28.321Z,15.00
2022-10-19T15:36:07.260Z,14.80
2022-10-19T15:38:36.677Z,14.90
2022-10-19T15:41:05.627Z,14.80
2022-10-19T15:43:46.352Z,14.70
2022-10-19T15:46:26.223Z,14.70
2022-10-19T15:48:55.986Z,14.50
2022-10-19T15:51:49.769Z,14.50
2022-10-19T15:54:19.488Z,14.50
2022-10-19T15:56:48.790Z,14.50
2022-10-19T15:59:18.769Z,14.40
2022-10-19T16:01:52.623Z,14.30
2022-10-19T16:04:21.695Z,14.30
2022-10-19T16:06:51.139Z,14.00
2022-10-19T16:09:22.213Z,14.20
2022-10-19T16:11:56.282Z,14.00
2022-10-19T16:14:24.315Z,13.90
2022-10-19T16:16:52.223Z,13.90
2022-10-19T16:19:20.150Z,13.90
2022-10-19T16:21:50.314Z,13.80
2022-10-19T16:24:19.800Z,13.80
2022-10-19T16:26:47.737Z,13.70
2022-10-19T16:29:15.687Z,13.60
2022-10-19T16:31:43.545Z,13.60
2022-10-19T16:34:11.447Z,13.60
2022-10-19T16:36:39.358Z,13.40
2022-10-19T16:39:07.240Z,14.00
2022-10-19T16:41:39.521Z,13.40
2022-10-19T16:44:07.492Z,13.40
2022-10-19T16:46:35.419Z,13.40
2022-10-19T16:49:03.287Z,13.20
2022-10-19T16:51:36.264Z,13.20
2022-10-19T16:54:06.051Z,13.10
2022-10-19T16:56:36.364Z,13.10
2022-10-19T16:59:05.834Z,13.00
2022-10-19T17:01:35.792Z,13.00
2022-10-19T17:04:03.786Z,12.90
2022-10-19T17:06:31.926Z,12.80
2022-10-19T17:09:36.679Z,12.80
2022-10-19T17:11:49.633Z,12.80
2022-10-19T17:14:17.576Z,12.80
2022-10-19T17:16:45.535Z,12.80
2022-10-19T17:19:14.217Z,12.70
2022-10-19T17:21:42.554Z,12.70
2022-10-19T17:24:18.660Z,12.70
2022-10-19T17:26:52.365Z,12.60
2022-10-19T17:29:21.118Z,12.60
2022-10-19T17:31:49.254Z,12.50
2022-10-19T17:34:17.658Z,12.50
2022-10-19T17:36:46.653Z,12.50
2022-10-19T17:39:17.880Z,12.40
2022-10-19T17:41:46.776Z,12.40
2022-10-19T17:44:16.681Z,12.40
2022-10-19T17:46:44.829Z,12.30
2022-10-19T17:49:13.677Z,12.30
2022-10-19T17:51:41.745Z,12.30
2022-10-19T17:54:12.964Z,12.30
2022-10-19T17:56:44.865Z,12.20
2022-10-19T17:59:13.258Z,12.20
2022-10-19T18:01:42.754Z,12.20
2022-10-19T18:04:10.727Z,12.10
2022-10-19T18:06:39.376Z,12.00
2022-10-19T18:09:09.735Z,12.00
2022-10-19T18:11:40.522Z,11.90
2022-10-19T18:14:10.486Z,11.90
2022-10-19T18:16:40.543Z,11.90
2022-10-19T18:19:10.022Z,11.90
2022-10-19T18:21:40.161Z,11.90
2022-10-19T18:24:12.704Z,11.80
2022-10-19T18:26:46.414Z,11.80
2022-10-19T18:29:18.348Z,11.80
2022-10-19T18:31:51.356Z,11.70
2022-10-19T18:34:22.712Z,11.60
2022-10-19T18:36:50.741Z,11.70
2022-10-19T18:39:19.371Z,11.60
2022-10-19T18:41:48.586Z,11.60
2022-10-19T18:44:16.496Z,11.60
2022-10-19T18:46:45.438Z,11.10
2022-10-19T18:49:13.586Z,11.50
2022-10-19T18:51:43.268Z,11.70
2022-10-19T18:54:12.354Z,11.40
2022-10-19T18:56:40.293Z,11.40
2022-10-19T18:59:08.182Z,11.30
2022-10-19T19:01:36.221Z,11.30
2022-10-19T19:04:08.678Z,11.30
2022-10-19T19:06:36.577Z,11.30
2022-10-19T19:09:08.445Z,11.40
2022-10-19T19:11:38.391Z,11.20
2022-10-19T19:14:08.413Z,11.20
2022-10-19T19:16:38.310Z,11.30
2022-10-19T19:19:06.931Z,11.10
2022-10-19T19:21:36.466Z,11.10
2022-10-19T19:24:07.699Z,11.10
2022-10-19T19:26:42.126Z,11.10
2022-10-19T19:29:10.256Z,11.00
2022-10-19T19:31:39.288Z,11.00
2022-10-19T19:34:09.431Z,11.00
2022-10-19T19:36:38.048Z,10.90
2022-10-19T19:39:07.368Z,10.90
2022-10-19T19:41:36.798Z,10.90
2022-10-19T19:44:04.715Z,10.90
2022-10-19T19:46:32.771Z,10.90
2022-10-19T19:49:02.939Z,10.80
2022-10-19T19:51:32.040Z,10.80
2022-10-19T19:54:00.098Z,10.80
2022-10-19T19:56:29.853Z,10.80
2022-10-19T19:58:59.954Z,10.80
2022-10-19T20:01:28.371Z,10.80
2022-10-19T20:04:00.949Z,10.70
2022-10-19T20:06:28.898Z,10.70
2022-10-19T20:08:57.563Z,10.60
2022-10-19T20:11:29.020Z,10.60
2022-10-19T20:13:58.646Z,10.60
2022-10-19T20:16:29.427Z,10.60
2022-10-19T20:19:01.729Z,11.00
2022-10-19T20:21:31.568Z,10.50
2022-10-19T20:23:59.450Z,10.30
2022-10-19T20:26:28.161Z,10.40
2022-10-19T20:28:57.854Z,10.50
2022-10-19T20:31:26.055Z,10.40
2022-10-19T20:33:54.013Z,10.40
2022-10-19T20:36:23.531Z,10.40
2022-10-19T20:38:53.257Z,10.30
2022-10-19T20:41:22.808Z,10.20
2022-10-19T20:43:50.936Z,10.30
2022-10-19T20:46:22.734Z,10.30
2022-10-19T20:48:51.456Z,10.20
2022-10-19T20:51:21.127Z,10.20
2022-10-19T20:53:52.093Z,10.20
2022-10-19T20:56:23.113Z,10.20
2022-10-19T20:58:55.993Z,10.20
2022-10-19T21:01:25.896Z,10.20
2022-10-19T21:03:55.474Z,10.20
2022-10-19T21:06:24.949Z,10.20
2022-10-19T21:08:53.528Z,10.20
2022-10-19T21:11:23.193Z,10.10
2022-10-19T21:13:56.284Z,10.10
2022-10-19T21:16:28.325Z,10.10
2022-10-19T21:18:56.481Z,10.00
2022-10-19T21:21:27.169Z,10.10
2022-10-19T21:23:56.503Z,10.00
2022-10-19T21:26:26.464Z,10.00
2022-10-19T21:28:54.433Z,10.00
2022-10-19T21:31:23.796Z,10.00
2022-10-19T21:33:53.588Z,10.00
2022-10-19T21:36:22.484Z,10.10
2022-10-19T21:38:50.386Z,10.00
2022-10-19T21:41:23.758Z,10.00
2022-10-19T21:43:54.280Z,9.90
2022-10-19T21:46:24.115Z,9.90
2022-10-19T21:48:55.135Z,9.90
2022-10-19T21:51:31.790Z,9.90
2022-10-19T21:54:00.006Z,9.90
2022-10-19T21:56:28.892Z,9.90
2022-10-19T21:58:56.919Z,9.90
2022-10-19T22:01:27.431Z,9.90
2022-10-19T22:04:01.194Z,9.90
2022-10-19T22:06:31.502Z,9.90
2022-10-19T22:09:00.090Z,9.90
2022-10-19T22:11:28.885Z,9.80
2022-10-19T22:13:59.062Z,9.90
2022-10-19T22:16:28.893Z,9.80
2022-10-19T22:18:57.464Z,9.80
2022-10-19T22:21:29.254Z,9.80
2022-10-19T22:23:58.613Z,9.80
2022-10-19T22:26:28.495Z,9.80
2022-10-19T22:28:56.808Z,9.70
2022-10-19T22:31:25.601Z,9.80
2022-10-19T22:33:53.514Z,9.50
2022-10-19T22:36:21.569Z,9.70
2022-10-19T22:38:50.850Z,9.70
2022-10-19T22:42:13.914Z,9.70
2022-10-19T22:44:41.838Z,9.70
2022-10-19T22:47:09.741Z,9.70
2022-10-19T22:49:37.662Z,9.60
2022-10-19T22:52:06.031Z,9.60
2022-10-19T22:54:35.270Z,9.60
2022-10-19T22:57:03.309Z,9.60
2022-10-19T22:59:31.252Z,9.60
2022-10-19T23:01:59.235Z,9.50
2022-10-19T23:04:27.719Z,9.50
2022-10-19T23:06:55.947Z,9.50
2022-10-19T23:09:24.095Z,9.50
2022-10-19T23:11:53.358Z,9.50
2022-10-19T23:14:21.232Z,9.50
2022-10-19T23:16:49.167Z,9.50
2022-10-19T23:19:17.058Z,9.50
2022-10-19T23:21:44.930Z,9.50
2022-10-19T23:24:12.838Z,9.40
2022-10-19T23:26:40.831Z,9.50
2022-10-19T23:29:10.542Z,9.50
2022-10-19T23:31:38.412Z,9.50
2022-10-19T23:34:06.355Z,9.50
2022-10-19T23:36:34.309Z,9.40
2022-10-19T23:39:02.244Z,9.40
2022-10-19T23:41:30.154Z,9.40
2022-10-19T23:43:58.022Z,9.40
2022-10-19T23:46:27.278Z,9.40
2022-10-19T23:48:55.171Z,9.40
2022-10-19T23:51:23.779Z,9.40
2022-10-19T23:53:53.164Z,9.40
2022-10-19T23:56:23.226Z,9.40
2022-10-19T23:58:51.730Z,9.40
